createdAt,value
2023-12-08T00:00:44.532Z,101147.31
2023-12-08T00:03:11.108Z,101150.16
2023-12-08T00:05:37.729Z,101146.06
2023-12-08T00:08:05.284Z,101154.78
2023-12-08T00:10:31.808Z,101155.75
2023-12-08T00:12:59.256Z,101140.59
2023-12-08T00:15:26.758Z,101144.50
2023-12-08T00:17:54.338Z,101133.03
2023-12-08T00:20:20.927Z,101136.22
2023-12-08T00:22:47.474Z,101137.03
2023-12-08T00:25:14.029Z,101134.38
2023-12-08T00:27:41.475Z,101128.72
2023-12-08T00:30:09.067Z,101131.88
2023-12-08T00:32:36.657Z,101131.53
2023-12-08T00:35:03.332Z,101133.03
2023-12-08T00:37:30.815Z,101132.66
2023-12-08T00:39:58.267Z,101121.97
2023-12-08T00:42:25.699Z,101116.53
2023-12-08T00:44:53.202Z,101116.53
2023-12-08T00:47:20.733Z,101120.78
2023-12-08T00:49:47.386Z,101104.88
2023-12-08T00:52:13.990Z,101110.38
2023-12-08T00:54:41.412Z,101115.97
2023-12-08T00:57:07.992Z,101118.28
2023-12-08T00:59:34.550Z,101109.63
2023-12-08T01:02:01.150Z,101105.78
2023-12-08T01:04:28.583Z,101101.69
2023-12-08T01:06:56.267Z,101110.47
2023-12-08T01:09:23.740Z,101116.94
2023-12-08T01:11:50.328Z,101125.22
2023-12-08T01:14:17.724Z,101136.31
2023-12-08T01:16:44.295Z,101138.19
2023-12-08T01:19:11.750Z,101142.75
2023-12-08T01:21:39.216Z,101154.00
2023-12-08T01:24:06.717Z,101156.81
2023-12-08T01:26:34.226Z,101148.88
2023-12-08T01:29:00.811Z,101130.63
2023-12-08T01:31:27.322Z,101119.97
2023-12-08T01:33:54.910Z,101130.25
2023-12-08T01:36:39.693Z,101126.78
2023-12-08T01:39:09.112Z,101124.75
2023-12-08T01:41:36.535Z,101133.91
2023-12-08T01:44:04.044Z,101130.25
2023-12-08T01:46:30.638Z,101128.63
2023-12-08T01:48:58.275Z,101121.50
2023-12-08T01:51:25.751Z,101128.34
2023-12-08T01:53:52.280Z,101127.84
2023-12-08T01:56:18.842Z,101119.06
2023-12-08T01:58:45.312Z,101122.31
2023-12-08T02:01:11.933Z,101126.97
2023-12-08T02:03:39.489Z,101131.03
2023-12-08T02:06:07.011Z,101122.25
2023-12-08T02:08:34.372Z,101118.69
2023-12-08T02:11:00.913Z,101107.97
2023-12-08T02:13:28.383Z,101116.66
2023-12-08T02:15:56.760Z,101120.72
2023-12-08T02:18:24.284Z,101113.88
2023-12-08T02:20:51.758Z,101105.63
2023-12-08T02:23:18.272Z,101101.22
2023-12-08T02:25:44.761Z,101099.75
2023-12-08T02:28:12.191Z,101101.59
2023-12-08T02:30:38.661Z,101102.00
2023-12-08T02:33:06.075Z,101112.69
2023-12-08T02:35:32.658Z,101110.69
2023-12-08T02:37:59.182Z,101111.00
2023-12-08T02:40:27.625Z,101115.44
2023-12-08T02:42:55.001Z,101120.63
2023-12-08T02:45:21.612Z,101123.03
2023-12-08T02:47:48.228Z,101121.56
2023-12-08T02:50:14.784Z,101111.25
2023-12-08T02:52:41.276Z,101102.91
2023-12-08T02:55:08.672Z,101113.88
2023-12-08T02:57:36.032Z,101115.50
2023-12-08T03:00:02.609Z,101106.75
2023-12-08T03:02:29.239Z,101108.03
2023-12-08T03:04:55.783Z,101111.22
2023-12-08T03:07:23.132Z,101107.56
2023-12-08T03:09:49.662Z,101093.69
2023-12-08T03:12:16.150Z,101105.56
2023-12-08T03:14:42.714Z,101113.16
2023-12-08T03:17:10.060Z,101117.91
2023-12-08T03:19:37.457Z,101119.59
2023-12-08T03:22:04.031Z,101128.72
2023-12-08T03:24:32.471Z,101136.13
2023-12-08T03:26:59.932Z,101139.63
2023-12-08T03:29:27.247Z,101147.59
2023-12-08T03:31:55.656Z,101149.28
2023-12-08T03:34:24.052Z,101147.16
2023-12-08T03:36:51.431Z,101144.03
2023-12-08T03:39:18.995Z,101140.34
2023-12-08T03:41:46.449Z,101149.81
2023-12-08T03:44:13.828Z,101149.78
2023-12-08T03:46:41.295Z,101145.03
2023-12-08T03:49:08.803Z,101141.56
2023-12-08T03:51:36.271Z,101135.22
2023-12-08T03:54:03.692Z,101129.63
2023-12-08T03:56:31.095Z,101125.66
2023-12-08T03:58:58.426Z,101117.31
2023-12-08T04:01:26.202Z,101123.66
2023-12-08T04:03:53.518Z,101128.94
2023-12-08T04:06:20.092Z,101123.53
2023-12-08T04:08:46.644Z,101120.72
2023-12-08T04:11:13.210Z,101123.41
2023-12-08T04:13:40.625Z,101126.59
2023-12-08T04:16:07.962Z,101121.41
2023-12-08T04:18:35.420Z,101121.09
2023-12-08T04:21:02.907Z,101125.03
2023-12-08T04:23:29.459Z,101125.84
2023-12-08T04:25:58.780Z,101123.22
2023-12-08T04:28:25.854Z,101115.69
2023-12-08T04:30:52.366Z,101125.63
2023-12-08T04:33:19.028Z,101109.72
2023-12-08T04:35:46.542Z,101103.75
2023-12-08T04:38:13.183Z,101103.03
2023-12-08T04:40:40.504Z,101108.13
2023-12-08T04:43:09.652Z,101108.16
2023-12-08T04:45:39.666Z,101110.88
2023-12-08T04:48:07.281Z,101108.44
2023-12-08T04:50:34.865Z,101099.69
2023-12-08T04:53:02.267Z,101102.09
2023-12-08T04:55:29.224Z,101103.28
2023-12-08T04:57:55.765Z,101103.28
2023-12-08T05:00:24.117Z,101101.31
2023-12-08T05:02:50.645Z,101110.38
2023-12-08T05:05:18.149Z,101107.19
2023-12-08T05:07:45.689Z,101108.41
2023-12-08T05:10:12.210Z,101090.59
2023-12-08T05:12:39.632Z,101093.31
2023-12-08T05:15:07.121Z,101095.41
2023-12-08T05:17:34.612Z,101101.25
2023-12-08T05:20:02.199Z,101108.34
2023-12-08T05:22:30.323Z,101115.91
2023-12-08T05:24:56.838Z,101117.09
2023-12-08T05:27:24.599Z,101115.13
2023-12-08T05:29:52.261Z,101112.78
2023-12-08T05:32:18.837Z,101111.63
2023-12-08T05:34:45.398Z,101107.28
2023-12-08T05:37:14.603Z,101111.16
2023-12-08T05:39:41.170Z,101104.81
2023-12-08T05:42:08.642Z,101107.56
2023-12-08T05:44:35.215Z,101103.34
2023-12-08T05:47:03.644Z,101093.50
2023-12-08T05:49:31.328Z,101088.38
2023-12-08T05:51:57.948Z,101093.09
2023-12-08T05:54:24.910Z,101087.97
2023-12-08T05:56:51.504Z,101081.13
2023-12-08T05:59:18.044Z,101081.13
2023-12-08T06:01:46.458Z,101082.88
2023-12-08T06:04:13.813Z,101081.19
2023-12-08T06:06:41.188Z,101079.16
2023-12-08T06:09:09.021Z,101080.78
2023-12-08T06:11:36.544Z,101084.28
2023-12-08T06:14:04.005Z,101078.78
2023-12-08T06:16:31.474Z,101085.56
2023-12-08T06:18:58.193Z,101083.78
2023-12-08T06:21:26.024Z,101087.03
2023-12-08T06:23:52.594Z,101091.69
2023-12-08T06:26:19.144Z,101088.59
2023-12-08T06:28:46.655Z,101092.91
2023-12-08T06:31:13.490Z,101093.06
2023-12-08T06:33:41.186Z,101092.69
2023-12-08T06:36:07.834Z,101087.09
2023-12-08T06:38:34.393Z,101085.91
2023-12-08T06:41:01.860Z,101083.81
2023-12-08T06:43:28.407Z,101072.72
2023-12-08T06:45:54.952Z,101074.19
2023-12-08T06:48:21.647Z,101072.66
2023-12-08T06:50:48.282Z,101076.50
2023-12-08T06:53:16.554Z,101080.06
2023-12-08T06:55:44.554Z,101072.59
2023-12-08T06:58:12.056Z,101074.13
2023-12-08T07:00:39.559Z,101075.00
2023-12-08T07:03:07.147Z,101073.44
2023-12-08T07:05:34.742Z,101065.53
2023-12-08T07:08:02.232Z,101066.41
2023-12-08T07:10:28.974Z,101059.19
2023-12-08T07:12:55.534Z,101067.22
2023-12-08T07:15:22.102Z,101062.44
2023-12-08T07:17:49.849Z,101061.59
2023-12-08T07:20:16.500Z,101072.31
2023-12-08T07:22:43.176Z,101079.34
2023-12-08T07:25:10.914Z,101081.44
2023-12-08T07:27:37.517Z,101079.81
2023-12-08T07:30:04.150Z,101077.69
2023-12-08T07:32:31.729Z,101076.91
2023-12-08T07:34:58.308Z,101080.97
2023-12-08T07:37:25.883Z,101075.38
2023-12-08T07:39:53.536Z,101077.41
2023-12-08T07:42:22.273Z,101085.31
2023-12-08T07:44:49.999Z,101092.63
2023-12-08T07:47:17.825Z,101086.19
2023-12-08T07:49:45.748Z,101094.13
2023-12-08T07:52:12.582Z,101084.91
2023-12-08T07:54:40.255Z,101095.72
2023-12-08T07:57:07.937Z,101107.47
2023-12-08T07:59:35.453Z,101096.22
2023-12-08T08:02:03.003Z,101094.19
2023-12-08T08:04:29.524Z,101096.78
2023-12-08T08:06:57.122Z,101103.22
2023-12-08T08:09:23.764Z,101086.56
2023-12-08T08:11:50.337Z,101083.94
2023-12-08T08:14:16.904Z,101088.50
2023-12-08T08:16:44.356Z,101094.69
2023-12-08T08:19:11.188Z,101090.06
2023-12-08T08:21:37.796Z,101091.34
2023-12-08T08:24:05.347Z,101094.81
2023-12-08T08:26:32.880Z,101091.72
2023-12-08T08:28:59.486Z,101096.19
2023-12-08T08:31:27.053Z,101100.03
2023-12-08T08:33:53.940Z,101096.13
2023-12-08T08:36:21.701Z,101101.63
2023-12-08T08:38:48.415Z,101100.63
2023-12-08T08:41:16.065Z,101099.00
2023-12-08T08:43:42.782Z,101104.03
2023-12-08T08:46:09.356Z,101101.97
2023-12-08T08:48:36.150Z,101099.59
2023-12-08T08:51:03.364Z,101102.47
2023-12-08T08:53:29.953Z,101111.94
2023-12-08T08:55:58.230Z,101106.94
2023-12-08T08:58:25.753Z,101116.25
2023-12-08T09:00:53.272Z,101105.97
2023-12-08T09:03:20.787Z,101109.88
2023-12-08T09:05:47.433Z,101112.00
2023-12-08T09:08:14.952Z,101108.00
2023-12-08T09:10:42.447Z,101102.16
2023-12-08T09:13:09.069Z,101090.13
2023-12-08T09:15:35.613Z,101093.47
2023-12-08T09:18:02.368Z,101081.16
2023-12-08T09:20:28.982Z,101074.38
2023-12-08T09:22:55.563Z,101074.09
2023-12-08T09:25:23.127Z,101072.31
2023-12-08T09:27:50.699Z,101059.31
2023-12-08T09:30:18.286Z,101062.44
2023-12-08T09:32:45.285Z,101062.84
2023-12-08T09:35:12.876Z,101062.06
2023-12-08T09:37:39.514Z,101063.28
2023-12-08T09:40:06.144Z,101044.50
2023-12-08T09:42:32.727Z,101039.00
2023-12-08T09:44:59.308Z,101036.63
2023-12-08T09:47:26.209Z,101034.69
2023-12-08T09:49:53.920Z,101035.91
2023-12-08T09:52:20.585Z,101039.84
2023-12-08T09:54:47.109Z,101041.09
2023-12-08T09:57:13.712Z,101055.50
2023-12-08T09:59:41.209Z,101053.19
2023-12-08T10:02:07.765Z,101052.66
2023-12-08T10:04:35.294Z,101056.94
2023-12-08T10:07:01.850Z,101051.03
2023-12-08T10:09:28.384Z,101045.53
2023-12-08T10:11:55.889Z,101044.19
2023-12-08T10:14:23.483Z,101050.53
2023-12-08T10:16:50.021Z,101048.06
2023-12-08T10:19:16.628Z,101055.66
2023-12-08T10:21:43.468Z,101046.88
2023-12-08T10:24:11.018Z,101042.00
2023-12-08T10:26:37.631Z,101042.88
2023-12-08T10:29:05.157Z,101041.94
2023-12-08T10:31:32.619Z,101046.81
2023-12-08T10:33:59.385Z,101045.44
2023-12-08T10:36:26.000Z,101031.25
2023-12-08T10:38:53.585Z,101033.25
2023-12-08T10:41:21.141Z,101026.41
2023-12-08T10:43:47.685Z,101028.72
2023-12-08T10:46:14.244Z,101011.81
2023-12-08T10:48:41.826Z,101005.28
2023-12-08T10:51:08.468Z,101003.22
2023-12-08T10:53:34.985Z,100999.00
2023-12-08T10:56:02.544Z,100987.81
2023-12-08T10:58:30.003Z,100991.50
2023-12-08T11:00:57.470Z,100992.78
2023-12-08T11:03:25.156Z,100997.31
2023-12-08T11:05:52.795Z,100988.66
2023-12-08T11:08:20.303Z,100992.50
2023-12-08T11:10:47.783Z,100994.66
2023-12-08T11:13:14.351Z,100989.59
2023-12-08T11:15:40.936Z,100984.13
2023-12-08T11:18:08.566Z,100984.19
2023-12-08T11:20:35.147Z,100982.22
2023-12-08T11:23:02.623Z,100983.41
2023-12-08T11:25:29.163Z,100991.66
2023-12-08T11:27:56.647Z,100986.59
2023-12-08T11:30:23.255Z,100973.34
2023-12-08T11:32:49.927Z,100973.06
2023-12-08T11:35:17.470Z,100962.28
2023-12-08T11:37:44.135Z,100960.44
2023-12-08T11:40:11.626Z,100972.22
2023-12-08T11:42:38.196Z,100970.66
2023-12-08T11:45:05.665Z,100980.13
2023-12-08T11:47:33.180Z,100978.19
2023-12-08T11:50:00.744Z,100973.13
2023-12-08T11:52:28.302Z,100978.56
2023-12-08T11:55:06.118Z,100973.97
2023-12-08T11:57:36.171Z,100968.38
2023-12-08T12:00:03.014Z,100982.69
2023-12-08T12:02:29.626Z,100990.97
2023-12-08T12:04:56.231Z,100989.41
2023-12-08T12:07:23.693Z,100992.03
2023-12-08T12:09:50.377Z,100989.03
2023-12-08T12:12:17.001Z,100992.13
2023-12-08T12:14:45.002Z,100991.75
2023-12-08T12:17:11.772Z,100984.56
2023-12-08T12:19:38.484Z,100983.03
2023-12-08T12:22:06.007Z,100978.28
2023-12-08T12:24:33.515Z,100981.13
2023-12-08T12:27:01.068Z,100976.03
2023-12-08T12:29:27.681Z,100965.16
2023-12-08T12:31:55.183Z,100968.47
2023-12-08T12:34:22.843Z,100978.63
2023-12-08T12:36:50.354Z,100975.97
2023-12-08T12:39:17.906Z,100972.22
2023-12-08T12:41:45.528Z,100967.59
2023-12-08T12:44:12.251Z,100967.94
2023-12-08T12:46:39.738Z,100977.28
2023-12-08T12:49:06.435Z,100968.53
2023-12-08T12:51:33.998Z,100961.34
2023-12-08T12:54:00.589Z,100961.19
2023-12-08T12:56:28.098Z,100961.25
2023-12-08T12:58:55.710Z,100954.09
2023-12-08T13:01:23.202Z,100942.22
2023-12-08T13:03:49.843Z,100944.88
2023-12-08T13:06:16.515Z,100941.28
2023-12-08T13:08:43.527Z,100944.78
2023-12-08T13:11:10.997Z,100950.03
2023-12-08T13:13:37.584Z,100946.75
2023-12-08T13:16:04.175Z,100941.63
2023-12-08T13:18:31.906Z,100940.78
2023-12-08T13:20:58.512Z,100940.41
2023-12-08T13:23:26.114Z,100942.97
2023-12-08T13:25:52.755Z,100942.84
2023-12-08T13:28:20.302Z,100946.81
2023-12-08T13:30:47.764Z,100938.97
2023-12-08T13:33:14.392Z,100939.84
2023-12-08T13:35:41.034Z,100941.44
2023-12-08T13:38:07.593Z,100944.66
2023-12-08T13:40:34.129Z,100944.88
2023-12-08T13:43:02.000Z,100936.97
2023-12-08T13:45:28.775Z,100945.56
2023-12-08T13:47:56.499Z,100938.97
2023-12-08T13:50:24.034Z,100939.63
2023-12-08T13:52:51.544Z,100927.38
2023-12-08T13:55:19.041Z,100936.00
2023-12-08T13:57:45.593Z,100951.16
2023-12-08T14:00:13.127Z,100945.41
2023-12-08T14:02:40.658Z,100952.44
2023-12-08T14:05:07.282Z,100950.38
2023-12-08T14:07:33.935Z,100956.25
2023-12-08T14:10:01.367Z,100957.03
2023-12-08T14:12:28.900Z,100961.78
2023-12-08T14:14:56.507Z,100946.44
2023-12-08T14:17:24.056Z,100945.63
2023-12-08T14:19:50.697Z,100954.41
2023-12-08T14:22:17.411Z,100953.38
2023-12-08T14:24:44.893Z,100964.13
2023-12-08T14:27:11.484Z,100960.91
2023-12-08T14:29:38.950Z,100956.66
2023-12-08T14:32:06.525Z,100954.53
2023-12-08T14:34:33.240Z,100951.53
2023-12-08T14:37:00.880Z,100936.38
2023-12-08T14:39:29.434Z,100939.63
2023-12-08T14:41:56.229Z,100947.13
2023-12-08T14:44:23.744Z,100941.34
2023-12-08T14:46:50.522Z,100939.75
2023-12-08T14:49:17.173Z,100941.41
2023-12-08T14:51:43.786Z,100944.13
2023-12-08T14:54:10.452Z,100949.94
2023-12-08T14:56:37.998Z,100948.03
2023-12-08T14:59:04.514Z,100954.69
2023-12-08T15:01:31.074Z,100954.31
2023-12-08T15:03:58.659Z,100951.03
2023-12-08T15:06:26.273Z,100957.41
2023-12-08T15:08:52.855Z,100958.06
2023-12-08T15:11:19.495Z,100939.94
2023-12-08T15:13:47.053Z,100942.06
2023-12-08T15:16:14.558Z,100939.25
2023-12-08T15:18:42.099Z,100927.81
2023-12-08T15:21:08.968Z,100924.44
2023-12-08T15:23:36.477Z,100926.69
2023-12-08T15:26:03.069Z,100923.97
2023-12-08T15:28:30.567Z,100927.50
2023-12-08T15:30:58.166Z,100922.69
2023-12-08T15:33:24.897Z,100911.16
2023-12-08T15:35:52.951Z,100911.06
2023-12-08T15:38:20.405Z,100919.47
2023-12-08T15:40:47.795Z,100919.97
2023-12-08T15:43:14.438Z,100927.09
2023-12-08T15:45:42.004Z,100930.97
2023-12-08T15:48:08.734Z,100937.72
2023-12-08T15:50:35.326Z,100945.19
2023-12-08T15:53:01.912Z,100948.97
2023-12-08T15:55:28.513Z,100947.41
2023-12-08T15:57:55.054Z,100952.94
2023-12-08T16:00:21.887Z,100960.13
2023-12-08T16:02:48.601Z,100956.47
2023-12-08T16:05:16.185Z,100955.38
2023-12-08T16:07:43.328Z,100953.38
2023-12-08T16:10:09.896Z,100957.31
2023-12-08T16:12:36.611Z,100956.50
2023-12-08T16:15:03.682Z,100953.41
2023-12-08T16:17:31.263Z,100953.38
2023-12-08T16:19:57.867Z,100962.09
2023-12-08T16:22:24.609Z,100955.63
2023-12-08T16:24:52.216Z,100948.72
2023-12-08T16:27:18.833Z,100945.56
2023-12-08T16:29:45.793Z,100948.72
2023-12-08T16:32:12.545Z,100949.34
2023-12-08T16:34:39.234Z,100951.50
2023-12-08T16:37:05.926Z,100964.44
2023-12-08T16:39:33.718Z,100964.66
2023-12-08T16:42:00.407Z,100960.31
2023-12-08T16:44:27.970Z,100956.25
2023-12-08T16:46:54.521Z,100952.25
2023-12-08T16:49:21.425Z,100957.81
2023-12-08T16:51:49.089Z,100950.16
2023-12-08T16:54:16.621Z,100956.63
2023-12-08T16:56:44.320Z,100951.50
2023-12-08T16:59:10.961Z,100945.72
2023-12-08T17:01:37.581Z,100939.78
2023-12-08T17:04:05.125Z,100939.72
2023-12-08T17:06:31.894Z,100938.78
2023-12-08T17:08:58.612Z,100927.06
2023-12-08T17:11:26.160Z,100934.84
2023-12-08T17:13:52.758Z,100929.81
2023-12-08T17:16:19.329Z,100937.72
2023-12-08T17:18:46.945Z,100940.56
2023-12-08T17:21:14.487Z,100937.78
2023-12-08T17:26:33.019Z,100938.59
2023-12-08T17:29:06.719Z,100929.88
2023-12-08T17:31:33.256Z,100929.31
2023-12-08T17:34:08.759Z,100931.06
2023-12-08T17:36:43.446Z,100926.47
2023-12-08T17:39:10.005Z,100933.22
2023-12-08T17:41:38.092Z,100934.81
2023-12-08T17:44:04.675Z,100927.53
2023-12-08T17:46:31.281Z,100926.75
2023-12-08T17:48:57.910Z,100919.63
2023-12-08T17:51:25.453Z,100915.19
2023-12-08T17:56:36.154Z,100914.50
2023-12-08T17:59:02.684Z,100913.53
2023-12-08T18:01:29.348Z,100904.31
2023-12-08T18:03:56.111Z,100902.81
2023-12-08T18:06:22.916Z,100914.47
2023-12-08T18:11:34.610Z,100920.88
2023-12-08T18:14:02.117Z,100911.69
2023-12-08T18:16:28.674Z,100916.94
2023-12-08T18:18:55.370Z,100920.38
2023-12-08T18:21:22.057Z,100927.41
2023-12-08T18:26:33.633Z,100925.94
2023-12-08T18:29:08.813Z,100918.22
2023-12-08T18:31:36.642Z,100918.72
2023-12-08T18:34:04.282Z,100919.88
2023-12-08T18:36:30.933Z,100920.72
2023-12-08T18:41:41.769Z,100925.09
2023-12-08T18:44:08.331Z,100920.66
2023-12-08T18:46:34.968Z,100928.94
2023-12-08T18:49:01.672Z,100925.00
2023-12-08T18:51:29.560Z,100928.91
2023-12-08T18:56:41.523Z,100924.19
2023-12-08T18:59:08.080Z,100918.97
2023-12-08T19:01:35.564Z,100937.59
2023-12-08T19:04:03.075Z,100940.72
2023-12-08T19:06:29.704Z,100947.56
2023-12-08T19:11:41.298Z,100933.66
2023-12-08T19:14:07.892Z,100937.22
2023-12-08T19:16:35.395Z,100926.66
2023-12-08T19:19:02.970Z,100925.72
2023-12-08T19:21:30.568Z,100926.13
2023-12-08T19:26:43.029Z,100932.91
2023-12-08T19:29:10.506Z,100935.22
2023-12-08T19:31:37.065Z,100941.22
2023-12-08T19:34:03.821Z,100929.31
2023-12-08T19:36:30.504Z,100932.09
2023-12-08T19:41:52.755Z,100926.50
2023-12-08T19:44:20.267Z,100949.88
2023-12-08T19:46:47.796Z,100946.47
2023-12-08T19:49:15.340Z,100938.13
2023-12-08T19:51:42.844Z,100936.63
2023-12-08T19:56:53.686Z,100945.63
2023-12-08T19:59:20.615Z,100955.09
2023-12-08T20:01:47.766Z,100953.94
2023-12-08T20:04:15.319Z,100951.94
2023-12-08T20:06:42.904Z,100941.22
2023-12-08T20:12:04.383Z,100940.63
2023-12-08T20:14:30.950Z,100943.38
2023-12-08T20:16:58.436Z,100949.69
2023-12-08T20:19:25.109Z,100953.56
2023-12-08T20:21:52.671Z,100952.00
2023-12-08T20:27:05.304Z,100945.31
2023-12-08T20:29:32.818Z,100940.47
2023-12-08T20:31:59.363Z,100935.72
2023-12-08T20:34:26.843Z,100934.06
2023-12-08T20:36:53.415Z,100926.19
2023-12-08T20:42:14.908Z,100913.16
2023-12-08T20:44:42.591Z,100915.41
2023-12-08T20:47:10.106Z,100917.50
2023-12-08T20:49:37.797Z,100915.81
2023-12-08T20:52:05.355Z,100912.09
2023-12-08T20:57:17.004Z,100907.06
2023-12-08T20:59:43.542Z,100905.78
2023-12-08T21:02:11.011Z,100911.78
2023-12-08T21:04:37.517Z,100915.97
2023-12-08T21:07:04.625Z,100922.34
2023-12-08T21:09:32.520Z,100924.47
2023-12-08T21:11:59.179Z,100921.63
2023-12-08T21:14:25.724Z,100917.66
2023-12-08T21:16:53.182Z,100929.81
2023-12-08T21:19:23.381Z,100922.22
2023-12-08T21:21:51.330Z,100922.16
2023-12-08T21:24:18.925Z,100921.44
2023-12-08T21:26:45.576Z,100922.56
2023-12-08T21:29:13.040Z,100919.44
2023-12-08T21:31:39.566Z,100921.41
2023-12-08T21:34:07.170Z,100917.06
2023-12-08T21:36:34.376Z,100924.94
2023-12-08T21:39:02.002Z,100925.97
2023-12-08T21:41:28.569Z,100915.16
2023-12-08T21:43:57.216Z,100921.81
2023-12-08T21:46:24.773Z,100915.16
2023-12-08T21:48:51.428Z,100904.34
2023-12-08T21:51:18.995Z,100902.78
2023-12-08T21:53:45.537Z,100907.13
2023-12-08T21:56:13.010Z,100897.22
2023-12-08T21:58:55.387Z,100903.13
2023-12-08T22:01:21.949Z,100902.34
2023-12-08T22:03:48.621Z,100902.81
2023-12-08T22:06:16.210Z,100906.28
2023-12-08T22:08:42.760Z,100904.44
2023-12-08T22:11:10.223Z,100912.69
2023-12-08T22:13:37.679Z,100902.28
2023-12-08T22:16:04.323Z,100905.94
2023-12-08T22:18:31.030Z,100908.63
2023-12-08T22:20:57.704Z,100901.91
2023-12-08T22:23:24.270Z,100911.56
2023-12-08T22:25:50.835Z,100902.00
2023-12-08T22:28:18.301Z,100903.97
2023-12-08T22:30:45.790Z,100901.91
2023-12-08T22:33:13.390Z,100905.94
2023-12-08T22:35:39.999Z,100911.44
2023-12-08T22:38:06.539Z,100905.59
2023-12-08T22:40:33.078Z,100907.53
2023-12-08T22:45:44.490Z,100917.81
2023-12-08T22:48:12.056Z,100921.44
2023-12-08T22:50:47.003Z,100931.31
2023-12-08T22:53:16.849Z,100928.63
2023-12-08T22:55:43.573Z,100938.91
2023-12-08T23:01:04.431Z,100939.63
2023-12-08T23:03:32.044Z,100940.75
2023-12-08T23:06:01.017Z,100935.75
2023-12-08T23:08:27.761Z,100930.13
2023-12-08T23:10:55.235Z,100921.91
2023-12-08T23:16:06.580Z,100925.38
2023-12-08T23:18:33.295Z,100929.81
2023-12-08T23:21:00.858Z,100930.53
2023-12-08T23:23:27.382Z,100928.91
2023-12-08T23:25:54.004Z,100926.91
2023-12-08T23:31:15.641Z,100931.41
2023-12-08T23:33:42.221Z,100934.00
2023-12-08T23:36:09.087Z,100937.59
2023-12-08T23:38:36.627Z,100933.19
2023-12-08T23:41:04.102Z,100930.41
2023-12-08T23:46:14.580Z,100927.28
2023-12-08T23:48:43.176Z,100929.63
2023-12-08T23:51:10.663Z,100928.00
2023-12-08T23:53:37.190Z,100917.25
2023-12-08T23:56:03.775Z,100916.03
